Time;durP1;ratioP1;P1;durP2;ratioP2;P2;SDS_P1;SDS_P2;PMS_P1;PMS_P2;Temp;Humidity;BMP_temperature;BMP_pressure;BME280_temperature;BME280_humidity;BME280_pressure;Samples;Min_cycle;Max_cycle;Signal;HPM_P1;HPM_P2
2024/03/14 00:00:55;;;;;;;0.30;0.20;;;;;;;11.80;100.00;100289.22;5051745;28;20457;-49
2024/03/14 00:03:22;;;;;;;0.30;0.20;;;;;;;11.84;100.00;100285.53;5040996;28;21002;-49
2024/03/14 00:05:49;;;;;;;0.30;0.20;;;;;;;11.60;100.00;100289.81;5047855;28;20461;-48
2024/03/14 00:08:16;;;;;;;0.30;0.20;;;;;;;11.41;100.00;100292.22;5051783;28;20959;-49
2024/03/14 00:10:43;;;;;;;0.30;0.20;;;;;;;11.38;100.00;100291.47;5051825;28;20450;-50
2024/03/14 00:13:11;;;;;;;0.30;0.20;;;;;;;11.12;100.00;100282.50;5052027;28;20451;-48
2024/03/14 00:15:38;;;;;;;0.30;0.20;;;;;;;11.15;100.00;100285.06;5034431;28;20434;-49
2024/03/14 00:18:04;;;;;;;0.30;0.20;;;;;;;11.18;100.00;100284.09;5042263;28;20451;-48
2024/03/14 00:20:33;;;;;;;0.30;0.20;;;;;;;11.13;100.00;100278.91;5046830;28;20455;-48
2024/03/14 00:23:00;;;;;;;0.30;0.20;;;;;;;10.97;100.00;100275.00;5051562;28;20478;-49
2024/03/14 00:25:26;;;;;;;0.30;0.20;;;;;;;11.03;100.00;100276.59;5053694;28;20516;-48
2024/03/14 00:27:53;;;;;;;0.30;0.20;;;;;;;11.02;100.00;100275.72;5055811;28;20454;-49
2024/03/14 00:30:20;;;;;;;0.30;0.20;;;;;;;11.04;100.00;100284.50;5051459;28;20518;-49
2024/03/14 00:32:46;;;;;;;0.30;0.20;;;;;;;11.03;100.00;100279.25;5055368;28;20496;-48
2024/03/14 00:35:13;;;;;;;0.30;0.20;;;;;;;11.03;100.00;100281.91;5043472;28;20479;-48
2024/03/14 00:37:40;;;;;;;0.30;0.30;;;;;;;10.80;100.00;100278.13;5055368;28;20943;-49
2024/03/14 00:40:08;;;;;;;0.30;0.20;;;;;;;10.80;100.00;100282.59;5049828;28;20506;-49
2024/03/14 00:42:37;;;;;;;0.30;0.20;;;;;;;10.72;100.00;100277.50;5048124;28;20524;-49
2024/03/14 00:45:05;;;;;;;0.30;0.20;;;;;;;10.62;100.00;100278.69;5045648;28;20478;-50
2024/03/14 00:47:32;;;;;;;0.30;0.20;;;;;;;10.51;100.00;100275.47;5029271;28;20463;-49
2024/03/14 00:49:58;;;;;;;0.30;0.20;;;;;;;10.59;100.00;100268.16;5037755;28;20487;-48
2024/03/14 00:52:26;;;;;;;0.30;0.20;;;;;;;10.72;100.00;100271.31;5035350;28;20467;-49
2024/03/14 00:54:53;;;;;;;0.30;0.20;;;;;;;10.66;100.00;100273.22;5054989;28;20508;-49
2024/03/14 00:57:20;;;;;;;0.30;0.20;;;;;;;10.61;100.00;100269.84;5055068;28;20454;-50
2024/03/14 00:59:47;;;;;;;0.30;0.20;;;;;;;10.54;100.00;100276.22;5054732;28;20483;-49
2024/03/14 01:02:28;;;;;;;0.30;0.20;;;;;;;10.39;100.00;100266.91;5009645;28;20506;-49
2024/03/14 01:04:54;;;;;;;0.30;0.20;;;;;;;10.36;100.00;100264.34;4990981;28;20419;-49
2024/03/14 01:07:23;;;;;;;0.30;0.20;;;;;;;10.17;100.00;100267.53;5012725;28;20523;-49
2024/03/14 01:09:49;;;;;;;0.30;0.20;;;;;;;10.16;100.00;100269.31;5012874;28;20510;-49
2024/03/14 01:12:16;;;;;;;0.30;0.20;;;;;;;10.17;100.00;100268.41;5012625;28;20563;-49
2024/03/14 01:14:44;;;;;;;0.30;0.20;;;;;;;10.13;100.00;100268.50;4995394;28;21048;-50
2024/03/14 01:17:10;;;;;;;0.30;0.20;;;;;;;10.01;100.00;100273.25;5008852;28;20444;-50
2024/03/14 01:19:37;;;;;;;0.30;0.20;;;;;;;9.99;100.00;100263.56;5012661;28;20456;-49
2024/03/14 01:22:03;;;;;;;0.30;0.20;;;;;;;10.01;100.00;100267.09;5012422;28;20568;-49
2024/03/14 01:24:30;;;;;;;0.30;0.20;;;;;;;9.92;100.00;100256.69;5012525;28;20940;-50
2024/03/14 01:26:57;;;;;;;0.30;0.20;;;;;;;9.99;100.00;100255.59;5012443;28;20532;-50
2024/03/14 01:29:27;;;;;;;0.30;0.20;;;;;;;9.83;100.00;100264.88;5007072;28;20511;-50
2024/03/14 01:31:54;;;;;;;0.30;0.20;;;;;;;9.78;100.00;100257.94;5012291;28;20472;-50
2024/03/14 01:34:20;;;;;;;0.30;0.20;;;;;;;9.83;100.00;100252.50;5050899;28;20490;-49
2024/03/14 01:36:46;;;;;;;0.30;0.20;;;;;;;9.75;100.00;100249.19;5054294;28;20451;-50
2024/03/14 01:39:14;;;;;;;0.30;0.20;;;;;;;9.67;100.00;100252.00;5051225;28;20451;-50
2024/03/14 01:41:43;;;;;;;0.30;0.20;;;;;;;9.66;100.00;100255.59;5037775;28;20477;-50
2024/03/14 01:44:10;;;;;;;0.30;0.20;;;;;;;9.70;100.00;100243.97;5047553;28;20448;-49
2024/03/14 01:46:36;;;;;;;0.30;0.20;;;;;;;9.75;100.00;100252.69;5052167;28;20451;-50
2024/03/14 01:49:03;;;;;;;0.30;0.20;;;;;;;9.75;100.00;100249.19;5054092;28;20936;-48
2024/03/14 01:51:30;;;;;;;0.30;0.20;;;;;;;9.67;100.00;100238.75;5037617;28;20478;-49
2024/03/14 01:53:57;;;;;;;0.30;0.20;;;;;;;9.69;100.00;100238.69;5046936;28;20490;-48
2024/03/14 01:56:24;;;;;;;0.30;0.20;;;;;;;9.69;100.00;100233.41;5041682;28;20453;-50
2024/03/14 01:58:52;;;;;;;0.30;0.20;;;;;;;9.56;100.00;100224.00;5040926;28;20447;-50
2024/03/14 02:01:27;;;;;;;0.30;0.20;;;;;;;9.59;100.00;100222.13;5053980;28;20471;-50
2024/03/14 02:04:12;;;;;;;0.30;0.20;;;;;;;9.58;100.00;100216.88;5053865;28;20466;-49
2024/03/14 02:06:52;;;;;;;0.30;0.20;;;;;;;9.59;100.00;100208.00;5053916;28;20443;-51
2024/03/14 02:09:22;;;;;;;0.30;0.20;;;;;;;9.56;100.00;100214.25;5048151;28;20443;-51
2024/03/14 02:11:50;;;;;;;0.30;0.20;;;;;;;9.54;100.00;100213.44;5047091;28;20612;-49
2024/03/14 02:14:17;;;;;;;0.30;0.20;;;;;;;9.56;100.00;100216.91;5018488;28;20492;-49
2024/03/14 02:16:43;;;;;;;0.30;0.20;;;;;;;9.59;100.00;100208.88;5040939;28;20462;-49
2024/03/14 02:19:11;;;;;;;0.30;0.20;;;;;;;9.69;100.00;100213.03;5053546;28;20542;-49
2024/03/14 02:21:39;;;;;;;0.30;0.20;;;;;;;9.57;100.00;100207.16;5053775;28;20466;-50
2024/03/14 02:24:06;;;;;;;0.30;0.20;;;;;;;9.56;100.00;100211.59;5046068;28;20454;-50
2024/03/14 02:26:39;;;;;;;0.30;0.20;;;;;;;9.41;100.00;100212.88;5053456;28;20457;-49
2024/03/14 02:29:07;;;;;;;0.30;0.20;;;;;;;9.28;100.00;100205.25;5053581;28;20525;-49
2024/03/14 02:31:34;;;;;;;0.30;0.20;;;;;;;9.22;100.00;100208.06;5053231;28;20821;-49
2024/03/14 02:34:04;;;;;;;0.30;0.20;;;;;;;9.11;100.00;100201.25;5053180;28;20486;-49
2024/03/14 02:36:35;;;;;;;0.30;0.20;;;;;;;9.27;100.00;100204.38;5053375;28;20454;-50
2024/03/14 02:39:02;;;;;;;0.30;0.20;;;;;;;9.20;100.00;100206.34;5015672;28;20449;-49
2024/03/14 02:41:28;;;;;;;0.30;0.20;;;;;;;9.15;100.00;100208.19;5036946;28;20462;-50
2024/03/14 02:43:57;;;;;;;0.30;0.20;;;;;;;9.12;100.00;100205.63;5050078;28;20829;-50
2024/03/14 02:46:27;;;;;;;0.30;0.20;;;;;;;9.15;100.00;100202.91;5047746;28;20824;-50
2024/03/14 02:48:54;;;;;;;0.30;0.20;;;;;;;9.02;100.00;100201.44;5052727;28;20547;-50
2024/03/14 02:51:20;;;;;;;0.30;0.20;;;;;;;8.90;100.00;100196.44;5036952;28;20893;-50
2024/03/14 02:53:47;;;;;;;0.30;0.20;;;;;;;8.91;100.00;100198.19;5035893;28;20473;-50
2024/03/14 02:56:13;;;;;;;0.30;0.20;;;;;;;8.92;100.00;100191.13;5052778;28;20477;-50
2024/03/14 02:58:40;;;;;;;0.30;0.20;;;;;;;9.06;100.00;100195.19;5052906;28;20835;-49
2024/03/14 03:01:08;;;;;;;0.30;0.20;;;;;;;8.93;100.00;100196.38;5052406;28;20830;-49
2024/03/14 03:03:38;;;;;;;0.30;0.20;;;;;;;8.86;100.00;100200.94;5052727;28;20447;-51
2024/03/14 03:06:10;;;;;;;0.30;0.20;;;;;;;8.80;100.00;100200.22;5041375;28;20542;-50
2024/03/14 03:08:37;;;;;;;0.30;0.20;;;;;;;8.78;100.00;100194.09;5052649;28;20859;-50
2024/03/14 03:11:04;;;;;;;0.30;0.20;;;;;;;8.74;100.00;100198.56;5052575;28;20475;-49
2024/03/14 03:13:30;;;;;;;0.30;0.20;;;;;;;8.53;100.00;100204.34;5052358;28;20477;-48
2024/03/14 03:15:56;;;;;;;0.30;0.20;;;;;;;8.61;100.00;100208.56;5037804;28;20494;-51
2024/03/14 03:18:23;;;;;;;0.30;0.20;;;;;;;8.57;100.00;100206.91;5052732;28;20485;-51
2024/03/14 03:20:51;;;;;;;0.30;0.20;;;;;;;8.63;100.00;100208.53;5027828;28;20950;-50
2024/03/14 03:23:18;;;;;;;0.30;0.20;;;;;;;8.54;100.00;100206.97;5041069;28;20841;-50
2024/03/14 03:25:45;;;;;;;0.30;0.20;;;;;;;8.61;100.00;100205.03;5052381;28;20447;-50
2024/03/14 03:28:13;;;;;;;0.30;0.20;;;;;;;8.65;100.00;100208.53;5052031;28;20537;-51
2024/03/14 03:30:40;;;;;;;0.30;0.20;;;;;;;8.68;100.00;100205.78;5052448;28;20566;-50
2024/03/14 03:33:11;;;;;;;0.30;0.20;;;;;;;8.71;100.00;100198.63;5051075;28;20445;-51
2024/03/14 03:35:41;;;;;;;0.30;0.20;;;;;;;8.67;100.00;100190.81;5041546;28;20465;-50
2024/03/14 03:38:07;;;;;;;0.30;0.20;;;;;;;8.58;100.00;100200.69;5052096;28;20451;-52
2024/03/14 03:40:36;;;;;;;0.30;0.20;;;;;;;8.55;100.00;100198.13;5037424;28;20932;-51
2024/03/14 03:43:03;;;;;;;0.30;0.20;;;;;;;8.40;100.00;100202.88;5048760;28;20512;-52
2024/03/14 03:45:30;;;;;;;0.30;0.20;;;;;;;8.37;100.00;100201.16;5043103;28;20480;-51
2024/03/14 03:47:56;;;;;;;0.30;0.20;;;;;;;8.35;100.00;100202.06;5049743;28;20451;-51
2024/03/14 03:50:26;;;;;;;0.30;0.20;;;;;;;8.25;100.00;100199.59;5022681;28;20460;-51
2024/03/14 03:52:52;;;;;;;0.30;0.20;;;;;;;8.39;100.00;100204.66;5035467;28;20502;-51
2024/03/14 03:55:19;;;;;;;0.30;0.20;;;;;;;8.33;100.00;100204.72;5039903;28;20489;-51
2024/03/14 03:57:46;;;;;;;0.30;0.20;;;;;;;8.17;100.00;100201.53;5039245;28;20448;-51
2024/03/14 04:03:07;;;;;;;0.30;0.20;;;;;;;8.18;100.00;100200.63;5028813;28;21009;-50
2024/03/14 04:05:36;;;;;;;0.30;0.20;;;;;;;8.11;100.00;100199.00;5050933;28;20489;-51
2024/03/14 04:08:04;;;;;;;0.30;0.20;;;;;;;8.14;100.00;100196.31;5056423;28;20451;-52
2024/03/14 04:10:34;;;;;;;0.30;0.20;;;;;;;8.01;100.00;100198.31;5049289;28;20832;-50
2024/03/14 04:13:01;;;;;;;0.30;0.20;;;;;;;8.10;100.00;100199.94;5051348;28;20502;-51
2024/03/14 04:15:30;;;;;;;0.30;0.20;;;;;;;7.91;100.00;100204.69;5038552;28;20570;-50
2024/03/14 04:17:57;;;;;;;0.30;0.20;;;;;;;8.05;100.00;100200.91;5056112;28;20450;-50
2024/03/14 04:20:27;;;;;;;0.30;0.20;;;;;;;7.91;100.00;100198.50;5046909;28;20537;-51
2024/03/14 04:22:56;;;;;;;0.30;0.20;;;;;;;8.02;100.00;100204.47;5055966;28;20477;-51
2024/03/14 04:25:23;;;;;;;0.30;0.20;;;;;;;7.79;100.00;100207.56;5041738;28;20467;-51
2024/03/14 04:27:53;;;;;;;0.30;0.20;;;;;;;7.83;100.00;100201.31;5055903;28;20484;-52
2024/03/14 04:30:27;;;;;;;0.30;0.20;;;;;;;7.92;100.00;100197.63;5055539;28;20450;-50
2024/03/14 04:32:56;;;;;;;0.30;0.20;;;;;;;7.96;100.00;100192.25;5055750;28;20496;-52
2024/03/14 04:35:22;;;;;;;0.30;0.20;;;;;;;7.94;100.00;100193.16;5029640;28;20544;-52
2024/03/14 04:37:49;;;;;;;0.30;0.20;;;;;;;7.74;100.00;100198.84;5055681;28;20529;-51
2024/03/14 04:40:21;;;;;;;0.30;0.20;;;;;;;7.68;100.00;100199.84;5043459;28;20448;-52
2024/03/14 04:42:54;;;;;;;0.30;0.20;;;;;;;7.69;100.00;100200.72;5049506;28;20467;-52
2024/03/14 04:45:21;;;;;;;0.30;0.20;;;;;;;7.64;100.00;100199.91;5045329;28;21094;-52
2024/03/14 04:47:49;;;;;;;0.30;0.20;;;;;;;7.62;100.00;100189.34;5055291;28;20524;-50
2024/03/14 04:50:18;;;;;;;0.30;0.20;;;;;;;7.63;100.00;100184.94;5049195;28;20944;-51
2024/03/14 04:52:45;;;;;;;0.30;0.20;;;;;;;7.63;100.00;100184.94;5033852;28;20503;-51
2024/03/14 04:55:12;;;;;;;0.30;0.20;;;;;;;7.60;100.00;100185.88;5055194;28;20870;-50
2024/03/14 04:57:40;;;;;;;0.30;0.20;;;;;;;7.43;100.00;100186.19;5055046;28;20545;-51
2024/03/14 05:00:11;;;;;;;0.30;0.20;;;;;;;7.45;100.00;100185.28;5055338;28;20447;-50
2024/03/14 05:02:38;;;;;;;0.30;0.20;;;;;;;7.43;100.00;100187.94;5054839;28;20474;-51
2024/03/14 05:05:09;;;;;;;0.30;0.20;;;;;;;7.43;100.00;100183.53;5055085;28;20446;-51
2024/03/14 05:07:37;;;;;;;0.30;0.20;;;;;;;7.37;100.00;100180.09;5054927;28;20497;-52
2024/03/14 05:10:05;;;;;;;0.30;0.20;;;;;;;7.51;100.00;100186.03;5054578;28;20471;-50
2024/03/14 05:12:32;;;;;;;0.30;0.20;;;;;;;7.43;100.00;100182.66;5054887;28;20899;-51
2024/03/14 05:14:58;;;;;;;0.30;0.20;;;;;;;7.53;100.00;100194.81;5034449;28;20518;-52
2024/03/14 05:17:25;;;;;;;0.30;0.20;;;;;;;7.60;100.00;100193.81;5050442;28;20454;-51
2024/03/14 05:19:51;;;;;;;0.30;0.20;;;;;;;7.58;100.00;100198.25;5032798;28;20506;-52
2024/03/14 05:22:18;;;;;;;0.30;0.20;;;;;;;7.57;100.00;100199.16;5050032;28;21021;-52
2024/03/14 05:24:44;;;;;;;0.30;0.20;;;;;;;8.02;100.00;100197.41;5054547;28;20542;-51
2024/03/14 05:27:12;;;;;;;0.30;0.20;;;;;;;7.65;100.00;100191.94;5054704;28;20451;-51
2024/03/14 05:29:38;;;;;;;0.30;0.20;;;;;;;7.57;100.00;100195.63;5054764;28;20474;-52
2024/03/14 05:32:20;;;;;;;0.30;0.20;;;;;;;7.54;100.00;100193.03;5045413;28;20468;-51
2024/03/14 05:34:50;;;;;;;0.30;0.20;;;;;;;7.44;100.00;100189.69;5041374;28;20859;-51
2024/03/14 05:37:17;;;;;;;0.30;0.20;;;;;;;7.38;100.00;100181.84;5054241;28;20453;-51
2024/03/14 05:39:43;;;;;;;0.30;0.20;;;;;;;7.36;100.00;100178.38;5046839;28;20448;-51
2024/03/14 05:42:12;;;;;;;0.30;0.20;;;;;;;7.34;100.00;100185.44;5043822;28;20472;-51
2024/03/14 05:44:42;;;;;;;0.30;0.20;;;;;;;7.33;100.00;100183.72;5044767;28;20541;-51
2024/03/14 05:47:09;;;;;;;0.30;0.20;;;;;;;7.29;100.00;100184.66;5054365;28;20443;-51
2024/03/14 05:49:36;;;;;;;0.30;0.20;;;;;;;7.23;100.00;100180.34;5053997;28;20447;-52
2024/03/14 05:52:03;;;;;;;0.30;0.20;;;;;;;7.12;100.00;100177.00;5037859;28;20471;-52
2024/03/14 05:54:30;;;;;;;0.30;0.20;;;;;;;7.19;100.00;100178.66;5051060;28;20625;-52
2024/03/14 05:56:59;;;;;;;0.30;0.20;;;;;;;7.12;100.00;100180.50;5054200;28;20451;-52
2024/03/14 05:59:26;;;;;;;0.30;0.20;;;;;;;7.04;100.00;100178.91;5052710;28;20455;-52
2024/03/14 06:01:52;;;;;;;0.30;0.20;;;;;;;7.10;100.00;100170.88;5053790;28;20563;-51
2024/03/14 06:04:21;;;;;;;0.30;0.20;;;;;;;7.17;100.00;100176.94;5053748;28;20446;-51
2024/03/14 06:06:48;;;;;;;0.30;0.20;;;;;;;7.18;100.00;100173.41;5054111;28;20867;-52
2024/03/14 06:09:15;;;;;;;0.30;0.20;;;;;;;7.13;100.00;100181.41;5053730;28;20451;-51
2024/03/14 06:11:45;;;;;;;0.30;0.20;;;;;;;7.08;100.00;100183.25;5053806;28;20482;-52
2024/03/14 06:14:14;;;;;;;0.30;0.20;;;;;;;6.98;100.00;100177.22;5046305;28;20452;-52
2024/03/14 06:16:41;;;;;;;0.30;0.20;;;;;;;6.96;100.00;100178.16;5038535;28;20483;-50
2024/03/14 06:19:08;;;;;;;0.30;0.20;;;;;;;6.94;100.00;100180.81;5053863;28;20529;-50
2024/03/14 06:21:40;;;;;;;0.30;0.20;;;;;;;6.96;100.00;100180.78;5053383;28;20554;-51
2024/03/14 06:24:09;;;;;;;0.30;0.20;;;;;;;7.18;100.00;100170.75;5027295;28;20481;-51
2024/03/14 06:26:39;;;;;;;0.30;0.20;;;;;;;7.09;100.00;100180.56;5053415;28;20534;-51
2024/03/14 06:29:05;;;;;;;0.30;0.20;;;;;;;7.30;100.00;100182.00;5053344;28;21010;-51
2024/03/14 06:31:32;;;;;;;0.30;0.20;;;;;;;7.32;100.00;100177.56;5053026;28;20485;-51
2024/03/14 06:33:58;;;;;;;0.30;0.20;;;;;;;7.25;100.00;100186.47;5053212;28;20818;-50
2024/03/14 06:36:26;;;;;;;0.30;0.20;;;;;;;7.30;100.00;100182.00;5052935;28;20910;-50
2024/03/14 06:38:55;;;;;;;0.30;0.20;;;;;;;7.50;100.00;100186.94;5052442;28;20454;-50
2024/03/14 06:41:22;;;;;;;0.30;0.20;;;;;;;7.54;100.00;100179.81;5035564;28;20471;-49
2024/03/14 06:43:48;;;;;;;0.30;0.20;;;;;;;7.79;100.00;100181.09;5051846;28;20461;-51
2024/03/14 06:46:16;;;;;;;0.30;0.20;;;;;;;7.76;100.00;100189.09;5045757;28;20457;-50
2024/03/14 06:48:43;;;;;;;0.30;0.20;;;;;;;7.96;100.00;100189.59;5053263;28;20443;-50
2024/03/14 06:51:10;;;;;;;0.30;0.20;;;;;;;8.17;100.00;100192.72;5043930;28;20472;-51
2024/03/14 06:53:36;;;;;;;0.30;0.20;;;;;;;8.26;100.00;100189.88;5043260;28;20443;-50
2024/03/14 06:56:08;;;;;;;0.30;0.20;;;;;;;8.23;100.00;100185.53;5052718;28;21024;-49
2024/03/14 06:58:35;;;;;;;0.30;0.20;;;;;;;8.23;100.00;100190.81;5052890;28;20450;-49
2024/03/14 07:01:01;;;;;;;0.30;0.20;;;;;;;8.28;100.00;100190.72;5052600;28;20483;-49
2024/03/14 07:03:28;;;;;;;0.30;0.20;;;;;;;8.34;100.00;100187.97;5052763;28;20955;-49
2024/03/14 07:05:57;;;;;;;0.30;0.20;;;;;;;8.36;100.00;100188.84;5052648;28;20429;-49
2024/03/14 07:08:26;;;;;;;0.30;0.20;;;;;;;8.54;100.00;100190.19;5052941;28;20453;-50
2024/03/14 07:10:53;;;;;;;0.30;0.20;;;;;;;8.68;100.00;100192.53;5052362;28;20443;-50
2024/03/14 07:13:21;;;;;;;0.30;0.20;;;;;;;8.72;100.00;100188.91;5051611;28;20463;-51
2024/03/14 07:15:47;;;;;;;0.30;0.20;;;;;;;8.85;100.00;100185.06;5028409;28;20495;-51
2024/03/14 07:18:16;;;;;;;0.30;0.20;;;;;;;8.82;100.00;100187.81;5052616;28;20533;-50
2024/03/14 07:20:45;;;;;;;0.30;0.20;;;;;;;8.99;100.00;100185.63;5052295;28;20490;-51
2024/03/14 07:23:13;;;;;;;0.30;0.20;;;;;;;9.01;100.00;100185.56;5052501;28;20874;-50
2024/03/14 07:25:41;;;;;;;0.50;0.50;;;;;;;9.15;100.00;100188.78;5052426;28;20465;-50
2024/03/14 07:28:09;;;;;;;0.37;0.30;;;;;;;9.22;100.00;100186.84;5052386;28;20947;-50
2024/03/14 07:30:35;;;;;;;0.30;0.20;;;;;;;9.35;100.00;100191.81;5052367;28;20459;-50
2024/03/14 07:33:02;;;;;;;0.30;0.20;;;;;;;9.41;100.00;100190.78;5052280;28;20474;-51
2024/03/14 07:35:29;;;;;;;0.30;0.20;;;;;;;9.43;100.00;100191.59;5052014;28;20526;-50
2024/03/14 07:37:55;;;;;;;0.30;0.20;;;;;;;9.48;100.00;100192.38;5052052;28;20812;-50
2024/03/14 07:40:32;;;;;;;0.30;0.20;;;;;;;9.65;100.00;100194.59;5025390;28;20444;-50
2024/03/14 07:42:59;;;;;;;0.30;0.20;;;;;;;9.49;100.00;100195.00;5047817;28;20466;-50
2024/03/14 07:45:26;;;;;;;1.23;1.23;;;;;;;9.52;100.00;100199.34;5042057;28;20468;-51
2024/03/14 07:47:52;;;;;;;0.30;0.20;;;;;;;9.59;100.00;100190.28;5052066;28;20443;-50
2024/03/14 07:50:22;;;;;;;0.30;0.20;;;;;;;9.70;100.00;100195.31;5050009;28;20477;-52
2024/03/14 07:52:49;;;;;;;0.30;0.20;;;;;;;9.79;100.00;100195.97;5034975;28;20502;-50
2024/03/14 07:55:16;;;;;;;0.30;0.20;;;;;;;9.79;100.00;100193.31;5052161;28;20478;-51
2024/03/14 07:57:43;;;;;;;0.30;0.20;;;;;;;9.84;100.00;100197.59;5051914;28;20447;-51
2024/03/14 08:00:15;;;;;;;0.30;0.20;;;;;;;9.91;100.00;100196.53;5052109;28;20450;-51
2024/03/14 08:02:42;;;;;;;0.30;0.20;;;;;;;10.14;100.00;100190.56;5051688;28;20561;-50
2024/03/14 08:05:08;;;;;;;0.30;0.20;;;;;;;10.16;100.00;100200.25;5051787;28;20450;-52
2024/03/14 08:07:38;;;;;;;0.33;0.23;;;;;;;10.27;100.00;100197.31;5051894;28;20454;-51
2024/03/14 08:10:05;;;;;;;0.43;0.43;;;;;;;10.42;100.00;100193.38;5051740;28;20457;-49
2024/03/14 08:12:33;;;;;;;0.30;0.20;;;;;;;10.49;100.00;100194.91;5051642;28;20478;-49
2024/03/14 08:15:16;;;;;;;0.30;0.20;;;;;;;10.46;100.00;100192.34;5031272;28;20477;-49
2024/03/14 08:17:45;;;;;;;0.30;0.20;;;;;;;10.54;100.00;100199.16;5026723;28;20919;-49
2024/03/14 08:20:15;;;;;;;0.57;0.57;;;;;;;10.71;100.00;100198.69;5051808;28;20545;-49
2024/03/14 08:22:43;;;;;;;0.30;0.20;;;;;;;10.73;100.00;100202.16;5051870;28;20467;-51
2024/03/14 08:25:15;;;;;;;0.30;0.20;;;;;;;10.79;100.00;100193.09;5051665;28;20537;-50
2024/03/14 08:27:43;;;;;;;0.30;0.20;;;;;;;10.79;100.00;100191.31;5051567;28;20450;-51
2024/03/14 08:30:11;;;;;;;0.30;0.20;;;;;;;10.85;100.00;100185.81;5051361;28;20451;-51
2024/03/14 08:32:38;;;;;;;0.30;0.20;;;;;;;11.08;100.00;100193.03;5051881;28;20513;-50
2024/03/14 08:35:05;;;;;;;0.30;0.20;;;;;;;11.11;100.00;100195.63;5051590;28;20454;-51
2024/03/14 08:37:32;;;;;;;0.30;0.20;;;;;;;11.27;100.00;100186.22;5051671;28;20486;-51
2024/03/14 08:39:58;;;;;;;0.30;0.20;;;;;;;11.41;100.00;100188.44;5041708;28;20443;-51
2024/03/14 08:42:31;;;;;;;0.30;0.20;;;;;;;11.66;100.00;100188.47;5042728;28;20466;-50
2024/03/14 08:45:11;;;;;;;0.30;0.20;;;;;;;11.77;100.00;100190.72;5042519;28;20451;-50
2024/03/14 08:47:38;;;;;;;0.30;0.20;;;;;;;11.75;100.00;100187.25;5055370;28;20450;-51
2024/03/14 08:50:06;;;;;;;0.30;0.20;;;;;;;11.91;100.00;100183.16;5055408;28;20482;-51
2024/03/14 08:52:33;;;;;;;0.30;0.20;;;;;;;11.76;100.00;100195.19;5030476;28;20525;-51
2024/03/14 08:55:00;;;;;;;0.30;0.20;;;;;;;11.76;100.00;100189.84;5055266;28;20456;-51
2024/03/14 08:57:26;;;;;;;0.30;0.20;;;;;;;11.88;100.00;100183.28;5054915;28;20577;-51
2024/03/14 08:59:53;;;;;;;0.30;0.20;;;;;;;11.98;100.00;100184.69;5055272;28;20826;-50
2024/03/14 09:02:24;;;;;;;0.30;0.20;;;;;;;11.99;100.00;100193.53;5054698;28;20474;-51
2024/03/14 09:04:51;;;;;;;0.30;0.20;;;;;;;12.19;100.00;100190.16;5055088;28;20418;-50
2024/03/14 09:07:18;;;;;;;0.30;0.20;;;;;;;12.21;100.00;100183.00;5054765;28;21010;-51
2024/03/14 09:09:45;;;;;;;0.30;0.20;;;;;;;12.12;100.00;100192.19;5054920;28;20485;-50
2024/03/14 09:12:14;;;;;;;0.30;0.20;;;;;;;12.36;100.00;100195.75;5054607;28;20963;-51
2024/03/14 09:14:43;;;;;;;1.27;1.23;;;;;;;12.57;100.00;100202.91;5038866;28;20449;-51
2024/03/14 09:17:11;;;;;;;0.30;0.20;;;;;;;12.50;100.00;100189.88;5047389;28;20501;-51
2024/03/14 09:19:39;;;;;;;0.30;0.20;;;;;;;12.55;100.00;100191.44;5054765;28;21054;-50
2024/03/14 09:22:06;;;;;;;0.30;0.20;;;;;;;12.89;99.90;100191.00;5054424;28;20476;-51
2024/03/14 09:24:34;;;;;;;0.30;0.20;;;;;;;12.79;99.78;100186.97;5055049;28;20459;-51
2024/03/14 09:27:04;;;;;;;0.30;0.20;;;;;;;12.95;99.12;100192.56;5054459;28;20443;-50
2024/03/14 09:29:32;;;;;;;0.30;0.20;;;;;;;13.24;99.33;100191.41;5054706;28;20443;-51
2024/03/14 09:31:59;;;;;;;0.30;0.20;;;;;;;13.70;98.20;100195.66;5054374;28;20466;-51
2024/03/14 09:34:26;;;;;;;0.30;0.20;;;;;;;13.52;97.04;100185.78;5054352;28;20451;-51
2024/03/14 09:36:53;;;;;;;0.30;0.20;;;;;;;13.56;96.22;100187.38;5054020;28;20490;-51
2024/03/14 09:39:21;;;;;;;0.30;0.20;;;;;;;13.39;96.57;100188.09;5048737;28;20456;-51
2024/03/14 09:41:48;;;;;;;0.30;0.20;;;;;;;13.41;97.03;100188.03;5040161;28;20449;-50
2024/03/14 09:44:17;;;;;;;0.30;0.20;;;;;;;13.42;95.82;100190.63;5046012;28;20912;-51
2024/03/14 09:46:54;;;;;;;0.30;0.20;;;;;;;13.69;95.52;100191.28;5053494;28;20447;-51
2024/03/14 09:49:22;;;;;;;0.30;0.20;;;;;;;13.55;95.97;100185.66;5053849;28;20538;-52
2024/03/14 09:51:49;;;;;;;0.30;0.20;;;;;;;13.79;95.23;100183.72;5040118;28;20551;-52
2024/03/14 09:54:18;;;;;;;0.30;0.20;;;;;;;13.89;94.00;100179.72;5048893;28;20893;-50
2024/03/14 09:56:44;;;;;;;0.30;0.20;;;;;;;13.57;94.65;100186.47;5053198;28;20498;-50
2024/03/14 09:59:11;;;;;;;0.30;0.20;;;;;;;13.67;94.98;100179.78;5053267;28;20512;-50
2024/03/14 10:01:40;;;;;;;0.30;0.20;;;;;;;13.84;95.28;100174.59;5054213;28;20521;-49
2024/03/14 10:04:10;;;;;;;0.30;0.20;;;;;;;14.31;96.05;100176.06;5053659;28;20974;-49
2024/03/14 10:06:40;;;;;;;0.30;0.20;;;;;;;14.51;93.03;100170.69;5053766;28;20921;-49
2024/03/14 10:09:11;;;;;;;0.30;0.20;;;;;;;14.12;93.91;100176.06;5053702;28;20534;-49
2024/03/14 10:11:58;;;;;;;0.30;0.20;;;;;;;14.34;93.91;100170.56;5053815;28;20441;-49
2024/03/14 10:14:25;;;;;;;0.30;0.20;;;;;;;14.74;92.82;100172.28;5041473;28;20451;-48
2024/03/14 10:16:51;;;;;;;0.30;0.20;;;;;;;14.78;91.13;100165.84;5041262;28;20928;-49
2024/03/14 10:19:19;;;;;;;0.30;0.20;;;;;;;14.95;91.46;100152.53;5053736;28;20418;-49
2024/03/14 10:21:45;;;;;;;0.30;0.20;;;;;;;15.20;90.96;100156.66;5053423;28;20537;-49
2024/03/14 10:24:16;;;;;;;0.30;0.20;;;;;;;15.03;90.47;100154.81;5053397;28;20928;-49
2024/03/14 10:26:46;;;;;;;0.30;0.20;;;;;;;15.10;90.56;100145.56;5053260;28;20802;-50
2024/03/14 10:29:14;;;;;;;0.30;0.20;;;;;;;15.31;91.26;100141.78;5053779;28;20422;-49
2024/03/14 10:31:43;;;;;;;0.30;0.20;;;;;;;15.62;89.20;100140.25;5053081;28;21063;-49
2024/03/14 10:34:09;;;;;;;0.30;0.20;;;;;;;15.58;89.40;100139.53;5053639;28;20461;-49
2024/03/14 10:36:41;;;;;;;0.30;0.20;;;;;;;15.33;90.00;100139.03;5053086;28;20898;-49
2024/03/14 10:39:14;;;;;;;0.40;0.30;;;;;;;15.39;91.09;100136.94;5050307;28;20456;-49
2024/03/14 10:41:43;;;;;;;0.30;0.20;;;;;;;15.09;92.54;100136.66;5037960;28;20999;-49
2024/03/14 10:44:15;;;;;;;0.30;0.20;;;;;;;15.25;89.40;100134.09;5046298;28;20433;-49
2024/03/14 10:46:50;;;;;;;0.30;0.20;;;;;;;15.14;88.32;100133.75;5051891;28;20424;-49
2024/03/14 10:49:22;;;;;;;0.30;0.20;;;;;;;15.13;88.58;100129.34;5052952;28;20429;-49
2024/03/14 10:51:54;;;;;;;0.30;0.20;;;;;;;15.45;88.69;100125.03;5038673;28;20443;-49
2024/03/14 10:54:23;;;;;;;0.30;0.20;;;;;;;15.70;88.28;100132.69;5048653;28;20513;-49
2024/03/14 10:56:50;;;;;;;0.30;0.20;;;;;;;16.05;87.03;100120.13;5052745;28;20490;-49
2024/03/14 10:59:20;;;;;;;0.40;0.20;;;;;;;15.98;87.32;100121.38;5052680;28;20457;-49
2024/03/14 11:01:56;;;;;;;0.30;0.20;;;;;;;16.24;87.07;100120.84;5052497;28;20989;-50
2024/03/14 11:04:24;;;;;;;3.53;1.80;;;;;;;15.79;85.39;100113.47;5052428;28;20417;-49
2024/03/14 11:06:51;;;;;;;0.37;0.20;;;;;;;16.00;87.15;100109.63;5052841;28;20457;-49
2024/03/14 11:09:25;;;;;;;0.30;0.20;;;;;;;15.84;86.24;100110.53;5052174;28;20422;-49
2024/03/14 11:11:55;;;;;;;0.37;0.20;;;;;;;16.38;86.01;100111.16;5052552;28;20441;-49
2024/03/14 11:14:30;;;;;;;0.40;0.20;;;;;;;16.15;84.85;100109.75;5042401;28;20452;-49
2024/03/14 11:16:58;;;;;;;0.30;0.20;;;;;;;16.23;85.50;100103.03;5042912;28;20496;-50
2024/03/14 11:19:30;;;;;;;38.07;14.10;;;;;;;16.07;85.41;100114.66;5052554;28;20421;-50
2024/03/14 11:21:58;;;;;;;0.30;0.20;;;;;;;16.04;84.78;100106.81;5052354;28;20566;-50
2024/03/14 11:24:30;;;;;;;0.40;0.30;;;;;;;15.91;85.18;100103.91;5052366;28;20458;-49
2024/03/14 11:27:01;;;;;;;0.30;0.20;;;;;;;15.77;85.66;100093.91;5052190;28;20443;-49
2024/03/14 11:29:29;;;;;;;0.40;0.20;;;;;;;15.84;86.17;100095.31;5052501;28;20497;-49
2024/03/14 11:32:22;;;;;;;0.40;0.20;;;;;;;16.28;85.29;100089.34;5052196;28;20471;-49